Terminal Aerodrome Forecast
Issued by NWS

Home | Current Version | Previous Version | Text Only | Print | Product List | Glossary On
Versions: 1 2 3 4 5 6 7 8 9 10 11 12 13 14 15 16 17 18 19
749
FTUS42 KILM 300544
TAFCRE
TAF
KCRE 300544Z 3006/0106 19008KT P6SM SCT008
      TEMPO 3006/3010 BKN008
     FM301000 18008KT P6SM SCT008 BKN015
     FM301500 17013G20KT P6SM SCT025
     FM010200 18013KT P6SM FEW015 BKN200=

USA.gov is the U.S. government's official web portal to all federal, state and local government web resources and services.